createdAt,value
2022-08-18T00:01:41.784Z,6.10
2022-08-18T00:07:06.594Z,5.35
2022-08-18T00:12:33.655Z,6.93
2022-08-18T00:17:56.870Z,5.72
2022-08-18T00:23:20.131Z,6.13
2022-08-18T00:28:44.690Z,5.93
2022-08-18T00:34:08.107Z,5.85
2022-08-18T00:39:35.064Z,6.85
2022-08-18T00:45:06.946Z,5.90
2022-08-18T00:50:34.397Z,7.25
2022-08-18T00:55:58.733Z,7.05
2022-08-18T01:01:26.239Z,6.40
2022-08-18T01:06:53.099Z,6.85
2022-08-18T01:12:44.101Z,6.53
2022-08-18T01:18:20.798Z,6.80
2022-08-18T01:23:46.509Z,6.82
2022-08-18T01:29:11.869Z,6.30
2022-08-18T01:34:42.177Z,7.28
2022-08-18T01:41:25.076Z,6.97
2022-08-18T01:45:51.879Z,7.03
2022-08-18T01:51:15.011Z,6.10
2022-08-18T01:56:40.724Z,5.97
2022-08-18T02:02:04.466Z,5.53
2022-08-18T02:07:32.641Z,8.25
2022-08-18T02:13:01.165Z,7.65
2022-08-18T02:18:47.494Z,7.80
2022-08-18T02:24:11.744Z,7.50
2022-08-18T02:29:36.706Z,6.90
2022-08-18T02:35:00.098Z,7.72
2022-08-18T02:40:23.200Z,6.43
2022-08-18T02:45:47.599Z,6.38
2022-08-18T02:51:12.485Z,7.05
2022-08-18T02:56:41.292Z,6.90
2022-08-18T03:02:07.570Z,5.85
2022-08-18T03:07:30.692Z,6.10
2022-08-18T03:12:53.762Z,6.90
2022-08-18T03:18:18.274Z,5.38
2022-08-18T03:23:41.767Z,6.35
2022-08-18T03:29:05.523Z,5.80
2022-08-18T03:34:30.712Z,6.10
2022-08-18T03:39:54.033Z,6.00
2022-08-18T03:45:17.770Z,5.07
2022-08-18T03:50:42.845Z,5.85
2022-08-18T03:56:09.456Z,5.28
2022-08-18T04:01:34.674Z,6.13
2022-08-18T04:07:01.067Z,5.72
2022-08-18T04:12:24.619Z,6.05
2022-08-18T04:17:56.033Z,6.13
2022-08-18T04:23:28.833Z,6.35
2022-08-18T04:28:55.203Z,4.75
2022-08-18T04:34:18.696Z,4.88
2022-08-18T04:39:43.630Z,4.75
2022-08-18T04:45:08.246Z,4.90
2022-08-18T04:50:31.455Z,5.40
2022-08-18T04:55:57.112Z,4.18
2022-08-18T05:01:21.753Z,4.28
2022-08-18T05:06:46.471Z,3.78
2022-08-18T05:12:13.451Z,4.88
2022-08-18T05:17:39.609Z,4.35
2022-08-18T05:23:02.837Z,4.22
2022-08-18T05:28:27.544Z,5.05
2022-08-18T05:33:51.789Z,4.25
2022-08-18T05:39:20.971Z,4.80
2022-08-18T05:44:47.689Z,4.47
2022-08-18T05:50:12.950Z,4.18
2022-08-18T05:55:57.969Z,5.43
2022-08-18T06:01:25.909Z,5.97
2022-08-18T06:06:49.574Z,6.95
2022-08-18T06:12:23.640Z,7.18
2022-08-18T06:18:00.411Z,5.78
2022-08-18T06:23:29.009Z,7.22
2022-08-18T06:29:16.014Z,6.45
2022-08-18T06:34:46.226Z,5.63
2022-08-18T06:40:09.490Z,5.28
2022-08-18T06:45:39.595Z,4.95
2022-08-18T06:51:05.320Z,4.60
2022-08-18T06:56:35.727Z,4.07
2022-08-18T07:02:01.997Z,4.50
2022-08-18T07:07:40.073Z,4.28
2022-08-18T07:13:26.581Z,3.38
2022-08-18T07:18:51.427Z,3.22
2022-08-18T07:24:26.928Z,3.08
2022-08-18T07:30:05.950Z,3.47
2022-08-18T07:35:35.498Z,4.05
2022-08-18T07:41:02.221Z,3.58
2022-08-18T07:46:30.417Z,4.70
2022-08-18T07:51:58.694Z,3.42
2022-08-18T07:57:35.429Z,3.33
2022-08-18T08:03:15.987Z,2.67
2022-08-18T08:08:44.541Z,3.33
2022-08-18T08:14:21.699Z,2.88
2022-08-18T08:20:02.927Z,2.85
2022-08-18T08:25:45.838Z,3.22
2022-08-18T08:31:35.888Z,2.40
2022-08-18T08:37:01.501Z,2.63
2022-08-18T08:42:36.363Z,3.33
2022-08-18T08:48:09.549Z,2.35
2022-08-18T08:53:36.597Z,2.58
2022-08-18T08:59:01.733Z,2.05
2022-08-18T09:04:37.190Z,1.67
2022-08-18T09:10:24.355Z,1.80
2022-08-18T09:16:13.357Z,2.40
2022-08-18T09:21:44.379Z,2.03
2022-08-18T09:27:16.893Z,1.88
2022-08-18T09:32:58.090Z,1.52
2022-08-18T09:38:54.507Z,1.83
2022-08-18T09:45:02.535Z,3.05
2022-08-18T09:50:55.480Z,1.70
2022-08-18T09:56:58.306Z,2.28
2022-08-18T10:03:10.328Z,1.90
2022-08-18T10:09:02.642Z,2.45
2022-08-18T10:15:10.318Z,1.90
2022-08-18T10:20:41.333Z,1.35
2022-08-18T10:26:10.065Z,1.13
2022-08-18T10:32:19.882Z,1.13
2022-08-18T10:37:46.029Z,1.42
2022-08-18T10:43:45.466Z,1.90
2022-08-18T10:49:08.800Z,1.20
2022-08-18T10:54:51.692Z,1.27
2022-08-18T11:00:20.935Z,1.40
2022-08-18T11:05:44.243Z,1.00
2022-08-18T11:17:02.747Z,2.13
2022-08-18T11:28:19.105Z,1.23
2022-08-18T11:33:42.567Z,1.50
2022-08-18T11:39:10.298Z,1.85
2022-08-18T11:44:42.362Z,1.17
2022-08-18T11:50:11.635Z,1.55
2022-08-18T11:55:34.983Z,1.10
2022-08-18T12:01:01.670Z,1.90
2022-08-18T12:06:28.206Z,1.90
2022-08-18T12:11:55.755Z,1.50
2022-08-18T12:17:20.527Z,1.50
2022-08-18T12:22:46.184Z,2.50
2022-08-18T12:34:00.602Z,1.73
2022-08-18T12:39:24.953Z,1.40
2022-08-18T12:44:48.281Z,1.35
2022-08-18T12:50:12.784Z,1.70
2022-08-18T13:01:23.590Z,1.75
2022-08-18T13:06:59.453Z,1.63
2022-08-18T13:12:25.549Z,1.73
2022-08-18T13:17:50.347Z,1.85
2022-08-18T13:23:24.549Z,1.42
2022-08-18T13:28:55.073Z,1.83
2022-08-18T13:34:20.645Z,1.65
2022-08-18T13:39:45.244Z,1.30
2022-08-18T13:45:24.567Z,1.77
2022-08-18T13:50:52.335Z,1.95
2022-08-18T13:56:17.954Z,1.50
2022-08-18T14:01:49.958Z,1.85
2022-08-18T14:07:19.168Z,1.50
2022-08-18T14:12:53.968Z,1.45
2022-08-18T14:18:17.070Z,1.63
2022-08-18T14:24:10.638Z,1.40
2022-08-18T14:29:46.829Z,1.50
2022-08-18T14:35:31.981Z,1.48
2022-08-18T14:40:55.427Z,1.23
2022-08-18T14:51:44.974Z,1.42
2022-08-18T14:57:09.565Z,1.63
2022-08-18T15:02:34.311Z,1.50
2022-08-18T15:07:58.757Z,1.27
2022-08-18T15:13:26.403Z,1.55
2022-08-18T15:18:51.082Z,1.55
2022-08-18T15:24:39.671Z,1.80
2022-08-18T15:30:05.629Z,1.95
2022-08-18T15:35:34.425Z,1.35
2022-08-18T15:40:59.809Z,1.80
2022-08-18T15:46:29.673Z,1.50
2022-08-18T15:51:54.830Z,1.40
2022-08-18T15:57:36.004Z,1.42
2022-08-18T16:03:02.761Z,1.40
2022-08-18T16:08:27.611Z,1.35
2022-08-18T16:13:51.029Z,1.10
2022-08-18T16:19:14.459Z,1.50
2022-08-18T16:24:39.067Z,1.23
2022-08-18T16:30:04.566Z,2.05
2022-08-18T16:35:28.018Z,2.67
2022-08-18T16:40:52.514Z,1.77
2022-08-18T16:46:18.518Z,2.15
2022-08-18T16:51:44.715Z,1.50
2022-08-18T16:57:09.308Z,1.83
2022-08-18T17:02:50.163Z,1.67
2022-08-18T17:08:13.904Z,1.50
2022-08-18T17:13:38.847Z,1.48
2022-08-18T17:19:02.130Z,1.70
2022-08-18T17:24:31.993Z,1.88
2022-08-18T17:30:06.999Z,1.85
2022-08-18T17:35:35.710Z,1.30
2022-08-18T17:40:58.995Z,1.35
2022-08-18T17:46:28.179Z,1.70
2022-08-18T17:51:55.211Z,1.15
2022-08-18T17:57:24.869Z,1.65
2022-08-18T18:02:49.546Z,2.05
2022-08-18T18:08:12.680Z,1.83
2022-08-18T18:13:35.770Z,1.20
2022-08-18T18:19:03.406Z,1.50
2022-08-18T18:24:31.750Z,1.58
2022-08-18T18:29:57.958Z,1.77
2022-08-18T18:35:27.698Z,1.83
2022-08-18T18:40:56.385Z,1.42
2022-08-18T18:46:31.733Z,2.08
2022-08-18T18:52:04.336Z,2.00
2022-08-18T18:57:39.809Z,1.83
2022-08-18T19:03:08.074Z,3.30
2022-08-18T19:08:39.633Z,2.00
2022-08-18T19:14:07.455Z,2.33
2022-08-18T19:19:38.245Z,2.42
2022-08-18T19:25:08.946Z,3.85
2022-08-18T19:30:34.485Z,2.40
2022-08-18T19:36:02.096Z,2.60
2022-08-18T19:41:39.017Z,2.40
2022-08-18T19:47:08.433Z,3.00
2022-08-18T19:52:46.464Z,1.95
2022-08-18T19:58:32.007Z,2.58
2022-08-18T20:04:05.767Z,2.90
2022-08-18T20:09:38.848Z,3.35
2022-08-18T20:15:09.859Z,3.00
2022-08-18T20:20:34.424Z,2.17
2022-08-18T20:25:57.552Z,2.40
2022-08-18T20:31:24.110Z,3.00
2022-08-18T20:36:48.222Z,2.80
2022-08-18T20:42:55.844Z,2.75
2022-08-18T20:48:29.213Z,2.97
2022-08-18T20:54:04.119Z,3.10
2022-08-18T20:59:40.094Z,3.15
2022-08-18T21:05:07.502Z,3.40
2022-08-18T21:10:32.951Z,3.40
2022-08-18T21:15:56.816Z,4.13
2022-08-18T21:21:26.871Z,3.75
2022-08-18T21:26:50.455Z,3.80
2022-08-18T21:32:19.339Z,4.10
2022-08-18T21:37:43.857Z,3.58
2022-08-18T21:43:07.546Z,4.40
2022-08-18T21:48:33.511Z,4.78
2022-08-18T21:54:00.979Z,4.90
2022-08-18T21:59:24.102Z,4.38
2022-08-18T22:04:48.364Z,6.65
2022-08-18T22:10:41.271Z,4.68
2022-08-18T22:16:24.556Z,4.07
2022-08-18T22:21:49.871Z,5.05
2022-08-18T22:27:20.246Z,5.13
2022-08-18T22:32:46.407Z,4.63
2022-08-18T22:38:09.705Z,3.33
2022-08-18T22:43:37.419Z,3.33
2022-08-18T22:49:00.564Z,3.15
2022-08-18T22:54:24.224Z,3.85
2022-08-18T22:59:48.650Z,3.83
2022-08-18T23:05:13.050Z,3.15
2022-08-18T23:10:36.244Z,4.30
2022-08-18T23:16:30.324Z,3.83
2022-08-18T23:21:45.314Z,3.47
2022-08-18T23:27:09.356Z,4.30
2022-08-18T23:32:33.912Z,3.70
2022-08-18T23:37:57.116Z,3.53
2022-08-18T23:43:20.609Z,3.72
2022-08-18T23:48:49.561Z,4.20
2022-08-18T23:54:14.369Z,3.60
2022-08-18T23:59:37.586Z,3.40
